createdAt,value
2022-09-04T00:02:37.304Z,1.63
2022-09-04T00:05:17.232Z,1.23
2022-09-04T00:08:05.276Z,2.00
2022-09-04T00:10:38.534Z,1.50
2022-09-04T00:13:09.855Z,1.50
2022-09-04T00:16:09.182Z,1.38
2022-09-04T00:18:41.812Z,1.63
2022-09-04T00:21:21.446Z,1.45
2022-09-04T00:23:50.954Z,1.20
2022-09-04T00:26:41.517Z,2.55
2022-09-04T00:29:33.967Z,1.17
2022-09-04T00:32:20.221Z,1.95
2022-09-04T00:35:08.378Z,1.60
2022-09-04T00:37:38.388Z,1.00
2022-09-04T00:40:20.232Z,1.33
2022-09-04T00:43:13.883Z,1.48
2022-09-04T00:46:05.067Z,1.27
2022-09-04T00:49:03.820Z,1.40
2022-09-04T00:51:56.467Z,1.33
2022-09-04T00:54:29.202Z,1.08
2022-09-04T00:57:21.511Z,1.15
2022-09-04T01:00:15.546Z,1.20
2022-09-04T01:03:03.925Z,1.23
2022-09-04T01:05:37.594Z,1.55
2022-09-04T01:08:29.820Z,1.30
2022-09-04T01:11:05.035Z,1.52
2022-09-04T01:13:41.011Z,1.20
2022-09-04T01:16:15.845Z,1.63
2022-09-04T01:18:57.615Z,1.35
2022-09-04T01:21:46.606Z,1.73
2022-09-04T01:24:24.778Z,1.48
2022-09-04T01:27:01.026Z,1.83
2022-09-04T01:29:41.851Z,1.20
2022-09-04T01:32:14.549Z,1.48
2022-09-04T01:35:02.883Z,1.30
2022-09-04T01:38:00.233Z,1.30
2022-09-04T01:40:50.147Z,1.30
2022-09-04T01:43:20.945Z,1.40
2022-09-04T01:46:06.248Z,1.38
2022-09-04T01:48:42.333Z,2.22
2022-09-04T01:51:17.218Z,1.50
2022-09-04T01:53:46.267Z,1.38
2022-09-04T01:56:19.097Z,1.42
2022-09-04T01:58:55.355Z,1.75
2022-09-04T02:01:39.810Z,1.40
2022-09-04T02:04:18.160Z,2.17
2022-09-04T02:06:57.348Z,1.50
2022-09-04T02:09:44.959Z,1.67
2022-09-04T02:12:23.355Z,1.80
2022-09-04T02:15:06.803Z,1.55
2022-09-04T02:17:35.858Z,2.88
2022-09-04T02:20:22.914Z,1.67
2022-09-04T02:23:15.883Z,1.70
2022-09-04T02:25:59.550Z,2.15
2022-09-04T02:28:30.909Z,2.45
2022-09-04T02:31:21.971Z,2.33
2022-09-04T02:34:12.987Z,1.80
2022-09-04T02:36:50.227Z,1.83
2022-09-04T02:39:55.374Z,1.83
2022-09-04T02:42:57.862Z,2.15
2022-09-04T02:46:02.033Z,1.83
2022-09-04T02:48:47.347Z,2.75
2022-09-04T02:51:23.825Z,2.25
2022-09-04T02:54:00.067Z,1.60
2022-09-04T02:56:49.021Z,4.25
2022-09-04T02:59:24.390Z,2.35
2022-09-04T03:01:59.196Z,1.40
2022-09-04T03:04:33.359Z,1.83
2022-09-04T03:07:02.654Z,4.28
2022-09-04T03:09:42.351Z,2.80
2022-09-04T03:12:26.158Z,1.65
2022-09-04T03:15:04.775Z,1.50
2022-09-04T03:17:52.118Z,2.88
2022-09-04T03:20:26.351Z,3.33
2022-09-04T03:22:57.610Z,1.98
2022-09-04T03:25:46.697Z,2.03
2022-09-04T03:28:21.026Z,1.67
2022-09-04T03:30:49.496Z,1.63
2022-09-04T03:33:34.343Z,1.63
2022-09-04T03:36:07.857Z,1.30
2022-09-04T03:38:59.037Z,2.03
2022-09-04T03:41:34.458Z,1.40
2022-09-04T03:44:12.599Z,2.45
2022-09-04T03:47:13.050Z,3.75
2022-09-04T03:50:07.346Z,12.52
2022-09-04T03:52:50.175Z,17.08
2022-09-04T03:56:01.252Z,17.73
2022-09-04T03:58:43.844Z,16.67
2022-09-04T04:01:34.940Z,17.85
2022-09-04T04:04:10.167Z,21.60
2022-09-04T04:06:42.382Z,16.30
2022-09-04T04:09:29.833Z,25.45
2022-09-04T04:12:29.625Z,17.45
2022-09-04T04:15:05.197Z,11.73
2022-09-04T04:17:51.389Z,9.73
2022-09-04T04:20:26.775Z,10.52
2022-09-04T04:23:29.249Z,12.65
2022-09-04T04:26:16.514Z,14.25
2022-09-04T04:28:59.757Z,18.55
2022-09-04T04:31:38.022Z,17.30
2022-09-04T04:34:34.102Z,19.65
2022-09-04T04:37:08.075Z,23.73
2022-09-04T04:39:44.449Z,19.70
2022-09-04T04:42:10.819Z,17.50
2022-09-04T04:45:11.097Z,19.27
2022-09-04T04:48:03.358Z,18.20
2022-09-04T04:50:40.538Z,21.90
2022-09-04T04:53:15.167Z,16.33
2022-09-04T04:55:55.702Z,16.23
2022-09-04T04:58:40.590Z,17.73
2022-09-04T05:01:17.918Z,20.40
2022-09-04T05:04:22.987Z,23.08
2022-09-04T05:06:55.058Z,15.30
2022-09-04T05:09:43.355Z,13.95
2022-09-04T05:12:52.046Z,16.02
2022-09-04T05:16:05.069Z,16.23
2022-09-04T05:18:51.694Z,16.58
2022-09-04T05:21:23.581Z,11.70
2022-09-04T05:24:04.549Z,14.18
2022-09-04T05:26:33.807Z,11.30
2022-09-04T05:29:38.712Z,13.95
2022-09-04T05:32:25.694Z,19.80
2022-09-04T05:35:35.106Z,18.02
2022-09-04T05:38:14.307Z,20.13
2022-09-04T05:41:05.737Z,17.20
2022-09-04T05:43:53.336Z,15.77
2022-09-04T05:46:37.315Z,16.70
2022-09-04T05:49:35.819Z,15.30
2022-09-04T05:52:13.367Z,11.40
2022-09-04T05:55:03.409Z,10.82
2022-09-04T05:57:39.663Z,10.43
2022-09-04T06:00:08.997Z,15.60
2022-09-04T06:03:07.428Z,16.58
2022-09-04T06:05:39.672Z,18.42
2022-09-04T06:08:36.691Z,16.75
2022-09-04T06:11:34.475Z,16.70
2022-09-04T06:14:28.120Z,20.08
2022-09-04T06:17:12.476Z,22.35
2022-09-04T06:19:50.673Z,18.90
2022-09-04T06:22:41.678Z,20.33
2022-09-04T06:25:25.985Z,20.25
2022-09-04T06:27:57.996Z,21.45
2022-09-04T06:30:29.837Z,25.42
2022-09-04T06:33:06.173Z,22.33
2022-09-04T06:35:54.715Z,24.02
2022-09-04T06:38:47.846Z,31.05
2022-09-04T06:41:39.611Z,28.73
2022-09-04T06:44:43.668Z,22.58
2022-09-04T06:47:28.530Z,26.63
2022-09-04T06:50:36.612Z,30.27
2022-09-04T06:53:27.320Z,27.42
2022-09-04T06:56:08.205Z,26.08
2022-09-04T06:59:11.209Z,25.83
2022-09-04T07:02:07.912Z,27.02
2022-09-04T07:04:44.818Z,22.02
2022-09-04T07:07:36.342Z,28.20
2022-09-04T07:10:15.884Z,28.50
2022-09-04T07:13:23.498Z,24.70
2022-09-04T07:16:14.888Z,26.33
2022-09-04T07:19:05.014Z,23.58
2022-09-04T07:22:04.975Z,25.23
2022-09-04T07:24:39.675Z,27.33
2022-09-04T07:27:15.939Z,23.77
2022-09-04T07:29:57.455Z,23.50
2022-09-04T07:32:30.964Z,21.48
2022-09-04T07:35:34.610Z,26.57
2022-09-04T07:38:16.281Z,16.17
2022-09-04T07:40:46.733Z,21.25
2022-09-04T07:43:20.852Z,16.63
2022-09-04T07:46:04.023Z,17.23
2022-09-04T07:48:43.798Z,16.65
2022-09-04T07:51:10.596Z,14.25
2022-09-04T07:54:22.312Z,12.88
2022-09-04T07:57:26.759Z,15.70
2022-09-04T08:00:07.725Z,12.93
2022-09-04T08:02:47.870Z,13.20
2022-09-04T08:05:36.900Z,11.18
2022-09-04T08:08:33.566Z,15.45
2022-09-04T08:11:09.551Z,12.52
2022-09-04T08:14:10.037Z,9.40
2022-09-04T08:16:57.785Z,14.68
2022-09-04T08:19:48.689Z,13.57
2022-09-04T08:22:28.210Z,17.20
2022-09-04T08:25:03.522Z,12.20
2022-09-04T08:27:49.869Z,14.48
2022-09-04T08:30:19.820Z,11.15
2022-09-04T08:33:09.987Z,12.27
2022-09-04T08:35:50.843Z,16.35
2022-09-04T08:38:26.958Z,14.70
2022-09-04T08:41:41.718Z,13.88
2022-09-04T08:44:38.587Z,14.93
2022-09-04T08:47:40.229Z,15.73
2022-09-04T08:50:29.727Z,16.90
2022-09-04T08:53:04.168Z,16.10
2022-09-04T08:56:00.838Z,13.32
2022-09-04T08:58:57.319Z,15.93
2022-09-04T09:01:35.648Z,17.70
2022-09-04T09:04:26.354Z,15.65
2022-09-04T09:07:16.295Z,16.88
2022-09-04T09:10:05.814Z,15.93
2022-09-04T09:12:55.588Z,16.60
2022-09-04T09:15:34.393Z,13.45
2022-09-04T09:18:11.643Z,15.63
2022-09-04T09:20:52.197Z,15.15
2022-09-04T09:23:51.801Z,15.95
2022-09-04T09:26:33.696Z,16.50
2022-09-04T09:29:35.665Z,21.17
2022-09-04T09:32:32.787Z,18.88
2022-09-04T09:35:08.691Z,17.08
2022-09-04T09:37:47.073Z,20.23
2022-09-04T09:40:22.318Z,20.15
2022-09-04T09:42:57.820Z,18.33
2022-09-04T09:46:13.489Z,16.70
2022-09-04T09:51:48.176Z,13.85
2022-09-04T09:54:34.218Z,11.95
2022-09-04T09:57:38.859Z,11.57
2022-09-04T10:00:27.491Z,11.10
2022-09-04T10:03:31.798Z,12.13
2022-09-04T10:06:27.210Z,12.13
2022-09-04T10:09:11.573Z,10.15
2022-09-04T10:12:11.994Z,11.23
2022-09-04T10:14:57.738Z,11.18
2022-09-04T10:18:02.017Z,8.65
2022-09-04T10:20:59.009Z,12.15
2022-09-04T10:23:46.993Z,8.68
2022-09-04T10:26:16.147Z,7.60
2022-09-04T10:29:10.823Z,9.73
2022-09-04T10:31:43.398Z,10.63
2022-09-04T10:34:36.959Z,7.63
2022-09-04T10:37:26.270Z,8.63
2022-09-04T10:40:20.235Z,7.43
2022-09-04T10:43:01.543Z,7.25
2022-09-04T10:45:47.961Z,7.85
2022-09-04T10:48:28.663Z,7.97
2022-09-04T10:51:23.293Z,6.22
2022-09-04T10:54:18.701Z,6.38
2022-09-04T10:57:03.702Z,6.25
2022-09-04T10:59:58.951Z,6.43
2022-09-04T11:02:57.027Z,5.70
2022-09-04T11:05:48.246Z,6.15
2022-09-04T11:08:51.714Z,5.35
2022-09-04T11:11:52.727Z,5.70
2022-09-04T11:14:37.811Z,6.55
2022-09-04T11:17:28.486Z,6.03
2022-09-04T11:20:24.318Z,4.80
2022-09-04T11:23:14.778Z,4.78
2022-09-04T11:26:05.694Z,4.20
2022-09-04T11:28:59.821Z,4.25
2022-09-04T11:31:35.231Z,4.83
2022-09-04T11:34:30.813Z,3.83
2022-09-04T11:37:10.519Z,3.22
2022-09-04T11:39:55.856Z,4.35
2022-09-04T11:42:52.901Z,4.65
2022-09-04T11:45:48.085Z,4.10
2022-09-04T11:48:42.148Z,4.13
2022-09-04T11:51:40.461Z,4.07
2022-09-04T11:54:19.054Z,5.00
2022-09-04T11:57:04.375Z,2.38
2022-09-04T11:59:57.926Z,3.80
2022-09-04T12:02:46.644Z,3.50
2022-09-04T12:05:51.905Z,3.70
2022-09-04T12:08:38.054Z,2.90
2022-09-04T12:11:31.819Z,2.85
2022-09-04T12:14:23.017Z,2.85
2022-09-04T12:17:18.582Z,3.63
2022-09-04T12:20:08.139Z,3.80
2022-09-04T12:22:50.141Z,4.22
2022-09-04T12:25:32.198Z,3.92
2022-09-04T12:28:04.634Z,3.58
2022-09-04T12:30:34.083Z,4.20
2022-09-04T12:33:12.381Z,2.40
2022-09-04T12:35:48.948Z,2.55
2022-09-04T12:38:38.407Z,3.33
2022-09-04T12:41:23.589Z,2.00
2022-09-04T12:43:52.898Z,3.25
2022-09-04T12:46:50.479Z,3.67
2022-09-04T12:49:58.279Z,3.78
2022-09-04T12:52:55.809Z,4.07
2022-09-04T12:55:33.394Z,2.05
2022-09-04T12:58:26.300Z,2.13
2022-09-04T13:01:15.183Z,1.90
2022-09-04T13:03:44.510Z,2.42
2022-09-04T13:06:48.271Z,1.80
2022-09-04T13:09:41.131Z,2.05
2022-09-04T13:12:23.759Z,1.83
2022-09-04T13:15:08.987Z,3.03
2022-09-04T13:17:48.230Z,2.05
2022-09-04T13:20:23.639Z,1.50
2022-09-04T13:23:12.262Z,1.70
2022-09-04T13:26:24.230Z,1.45
2022-09-04T13:29:25.979Z,1.40
2022-09-04T13:32:22.502Z,1.88
2022-09-04T13:35:09.481Z,1.40
2022-09-04T13:38:01.226Z,2.10
2022-09-04T13:41:06.451Z,2.88
2022-09-04T13:43:44.741Z,1.50
2022-09-04T13:46:29.883Z,1.50
2022-09-04T13:49:00.989Z,1.73
2022-09-04T13:51:37.263Z,1.83
2022-09-04T13:54:10.347Z,1.42
2022-09-04T13:57:03.257Z,2.75
2022-09-04T13:59:29.752Z,3.92
2022-09-04T14:01:59.897Z,1.45
2022-09-04T14:04:37.885Z,2.75
2022-09-04T14:07:11.430Z,1.77
2022-09-04T14:09:42.713Z,1.63
2022-09-04T14:12:35.349Z,1.40
2022-09-04T14:15:20.592Z,1.95
2022-09-04T14:18:04.802Z,1.73
2022-09-04T14:20:40.440Z,1.35
2022-09-04T14:23:25.566Z,1.15
2022-09-04T14:26:12.434Z,3.97
2022-09-04T14:28:49.358Z,1.48
2022-09-04T14:31:21.300Z,1.40
2022-09-04T14:34:13.816Z,1.30
2022-09-04T14:36:57.031Z,1.20
2022-09-04T14:39:31.871Z,1.38
2022-09-04T14:42:42.452Z,0.95
2022-09-04T14:45:46.519Z,0.80
2022-09-04T14:48:14.442Z,1.17
2022-09-04T14:50:52.354Z,1.13
2022-09-04T14:53:26.247Z,1.35
2022-09-04T14:56:09.434Z,1.58
2022-09-04T14:58:39.855Z,2.83
2022-09-04T15:01:17.174Z,1.25
2022-09-04T15:03:58.519Z,3.67
2022-09-04T15:07:07.796Z,1.20
2022-09-04T15:09:38.341Z,1.40
2022-09-04T15:12:31.122Z,1.13
2022-09-04T15:15:06.115Z,1.27
2022-09-04T15:17:35.180Z,0.80
2022-09-04T15:20:28.231Z,1.08
2022-09-04T15:22:59.031Z,2.05
2022-09-04T15:25:41.871Z,1.83
2022-09-04T15:28:19.719Z,1.40
2022-09-04T15:30:58.199Z,1.50
2022-09-04T15:33:24.714Z,1.20
2022-09-04T15:36:04.384Z,1.52
2022-09-04T15:38:32.105Z,3.33
2022-09-04T15:41:19.274Z,1.55
2022-09-04T15:43:49.519Z,1.65
2022-09-04T15:46:28.526Z,1.73
2022-09-04T15:49:00.102Z,1.40
2022-09-04T15:51:43.230Z,1.52
2022-09-04T15:54:26.909Z,1.67
2022-09-04T15:56:53.847Z,1.33
2022-09-04T15:59:25.147Z,1.17
2022-09-04T16:02:11.486Z,2.38
2022-09-04T16:04:57.431Z,0.93
2022-09-04T16:07:35.644Z,1.10
2022-09-04T16:10:25.737Z,0.80
2022-09-04T16:12:56.986Z,1.30
2022-09-04T16:15:37.182Z,1.10
2022-09-04T16:18:13.890Z,1.65
2022-09-04T16:21:01.450Z,1.17
2022-09-04T16:23:35.920Z,1.02
2022-09-04T16:26:18.085Z,1.27
2022-09-04T16:28:57.058Z,1.67
2022-09-04T16:31:34.623Z,1.83
2022-09-04T16:34:18.890Z,1.30
2022-09-04T16:36:48.229Z,0.98
2022-09-04T16:39:23.134Z,1.63
2022-09-04T16:41:54.478Z,1.90
2022-09-04T16:45:00.728Z,1.55
2022-09-04T16:47:36.327Z,1.40
2022-09-04T16:50:13.026Z,1.38
2022-09-04T16:52:45.275Z,1.10
2022-09-04T16:55:32.126Z,2.17
2022-09-04T16:58:18.482Z,1.45
2022-09-04T17:01:13.822Z,1.42
2022-09-04T17:03:50.139Z,1.10
2022-09-04T17:06:23.702Z,1.40
2022-09-04T17:08:58.258Z,3.75
2022-09-04T17:11:36.186Z,3.78
2022-09-04T17:14:09.997Z,2.40
2022-09-04T17:16:48.406Z,1.42
2022-09-04T17:19:15.290Z,1.88
2022-09-04T17:29:04.806Z,1.55
2022-09-04T17:29:08.801Z,1.38
2022-09-04T17:29:29.847Z,2.28
2022-09-04T17:31:25.880Z,1.33
2022-09-04T17:40:32.087Z,1.27
2022-09-04T17:40:51.619Z,1.50
2022-09-04T17:40:54.775Z,1.25
2022-09-04T17:43:10.516Z,1.88
2022-09-04T17:45:51.295Z,1.83
2022-09-04T17:48:27.286Z,2.83
2022-09-04T17:50:57.690Z,1.20
2022-09-04T17:53:33.425Z,1.55
2022-09-04T17:56:07.161Z,1.33
2022-09-04T17:58:40.044Z,3.80
2022-09-04T18:01:25.270Z,1.42
2022-09-04T18:04:21.638Z,2.17
2022-09-04T18:07:28.676Z,1.42
2022-09-04T18:09:59.283Z,2.10
2022-09-04T18:15:34.417Z,5.90
2022-09-04T18:18:27.500Z,2.70
2022-09-04T18:20:59.437Z,2.50
2022-09-04T18:23:56.605Z,1.77
2022-09-04T18:26:39.922Z,1.33
2022-09-04T18:31:46.443Z,3.05
2022-09-04T18:37:22.866Z,2.55
2022-09-04T18:37:25.137Z,2.60
2022-09-04T18:39:09.010Z,1.52
2022-09-04T18:49:10.319Z,4.68
2022-09-04T18:50:23.593Z,2.17
2022-09-04T18:50:29.879Z,2.45
2022-09-04T18:51:12.638Z,4.68
2022-09-04T18:54:13.553Z,1.98
2022-09-04T18:56:45.038Z,2.08
2022-09-04T18:59:25.307Z,2.38
2022-09-04T19:02:13.389Z,1.80
2022-09-04T19:04:51.921Z,3.17
2022-09-04T19:07:31.635Z,3.97
2022-09-04T19:10:17.947Z,1.80
2022-09-04T19:13:26.383Z,1.98
2022-09-04T19:15:55.782Z,2.63
2022-09-04T19:18:30.495Z,1.92
2022-09-04T19:21:14.151Z,2.38
2022-09-04T19:23:54.920Z,2.35
2022-09-04T19:26:32.848Z,2.08
2022-09-04T19:29:11.012Z,2.92
2022-09-04T19:31:42.222Z,1.67
2022-09-04T19:34:14.597Z,1.70
2022-09-04T19:36:45.991Z,1.60
2022-09-04T19:46:05.893Z,2.20
2022-09-04T19:46:17.047Z,4.15
2022-09-04T19:46:17.544Z,4.22
2022-09-04T19:48:21.178Z,4.97
2022-09-04T19:53:35.516Z,2.33
2022-09-04T19:53:49.473Z,2.60
2022-09-04T19:56:28.066Z,3.88
2022-09-04T19:59:27.447Z,1.92
2022-09-04T20:02:02.767Z,2.05
2022-09-04T20:04:41.227Z,1.70
2022-09-04T20:07:43.168Z,1.77
2022-09-04T20:10:25.804Z,1.90
2022-09-04T20:13:10.499Z,2.50
2022-09-04T20:15:42.468Z,2.25
2022-09-04T20:18:15.535Z,1.80
2022-09-04T20:20:48.949Z,3.80
2022-09-04T20:23:37.678Z,2.00
2022-09-04T20:26:17.543Z,2.17
2022-09-04T20:28:48.596Z,2.15
2022-09-04T20:31:35.923Z,2.60
2022-09-04T20:34:31.204Z,2.08
2022-09-04T20:37:20.046Z,2.97
2022-09-04T20:40:01.720Z,2.38
2022-09-04T20:42:33.609Z,1.75
2022-09-04T20:47:55.036Z,1.85
2022-09-04T20:52:52.603Z,2.20
2022-09-04T20:52:58.600Z,2.65
2022-09-04T20:57:37.408Z,2.17
2022-09-04T21:03:10.360Z,2.45
2022-09-04T21:03:20.358Z,1.90
2022-09-04T21:05:49.754Z,3.15
2022-09-04T21:08:29.945Z,2.30
2022-09-04T21:11:01.108Z,2.03
2022-09-04T21:13:39.362Z,2.63
2022-09-04T21:16:35.373Z,2.03
2022-09-04T21:19:29.267Z,2.22
2022-09-04T21:22:02.046Z,2.27
2022-09-04T21:24:43.811Z,2.47
2022-09-04T21:27:33.300Z,3.08
2022-09-04T21:30:05.449Z,3.40
2022-09-04T21:33:26.539Z,2.20
2022-09-04T21:36:25.635Z,1.70
2022-09-04T21:39:11.880Z,2.10
2022-09-04T21:41:56.128Z,2.20
2022-09-04T21:44:35.929Z,2.42
2022-09-04T21:47:39.541Z,3.40
2022-09-04T21:50:34.266Z,2.20
2022-09-04T21:53:35.666Z,2.25
2022-09-04T22:01:16.828Z,2.28
2022-09-04T22:02:37.796Z,2.22
2022-09-04T22:02:59.382Z,2.00
2022-09-04T22:13:26.467Z,2.33
2022-09-04T22:13:35.446Z,2.28
2022-09-04T22:14:11.389Z,2.15
2022-09-04T22:16:56.399Z,2.35
2022-09-04T22:20:01.985Z,2.30
2022-09-04T22:23:05.121Z,3.75
2022-09-04T22:25:50.293Z,3.00
2022-09-04T22:28:32.165Z,3.15
2022-09-04T22:31:20.261Z,2.10
2022-09-04T22:34:17.446Z,2.70
2022-09-04T22:37:04.496Z,2.00
2022-09-04T22:39:42.830Z,2.30
2022-09-04T22:42:37.742Z,2.58
2022-09-04T22:45:38.506Z,2.47
2022-09-04T22:48:28.649Z,2.33
2022-09-04T22:51:06.003Z,2.35
2022-09-04T22:53:47.105Z,2.58
2022-09-04T22:56:24.322Z,2.00
2022-09-04T22:59:20.397Z,2.65
2022-09-04T23:02:14.206Z,2.25
2022-09-04T23:05:09.847Z,2.20
2022-09-04T23:13:46.380Z,2.60
2022-09-04T23:13:54.483Z,2.22
2022-09-04T23:14:37.777Z,4.47
2022-09-04T23:17:22.988Z,2.80
2022-09-04T23:26:35.879Z,2.60
2022-09-04T23:26:47.352Z,3.75
2022-09-04T23:27:00.387Z,2.60
2022-09-04T23:29:44.656Z,2.40
2022-09-04T23:32:16.212Z,2.00
2022-09-04T23:35:14.191Z,2.90
2022-09-04T23:38:00.005Z,2.40
2022-09-04T23:40:32.642Z,2.78
2022-09-04T23:43:23.873Z,2.63
2022-09-04T23:46:24.588Z,2.90
2022-09-04T23:49:06.904Z,2.42
2022-09-04T23:51:46.892Z,2.85
2022-09-04T23:54:25.693Z,2.30
2022-09-04T23:57:11.255Z,2.85
